sensor_id;sensor_type;location;lat;lon;timestamp;pressure;altitude;pressure_sealevel;temperature;humidity
42247;BME280;27913;42.722;23.268;2022-09-17T05:37:01;93981.13;;;15.48;100.00
42247;BME280;27913;42.722;23.268;2022-09-17T05:39:26;94007.00;;;15.80;100.00
42247;BME280;27913;42.722;23.268;2022-09-17T05:41:53;93924.88;;;15.41;100.00
42247;BME280;27913;42.722;23.268;2022-09-17T05:44:20;93999.13;;;15.86;100.00
42247;BME280;27913;42.722;23.268;2022-09-17T05:46:46;94096.66;;;16.63;100.00
42247;BME280;27913;42.722;23.268;2022-09-17T05:49:13;94051.75;;;16.34;100.00
42247;BME280;27913;42.722;23.268;2022-09-17T05:51:40;94012.09;;;16.22;100.00
42247;BME280;27913;42.722;23.268;2022-09-17T05:54:05;94021.31;;;16.41;100.00
42247;BME280;27913;42.722;23.268;2022-09-17T05:56:31;93988.78;;;16.29;100.00
42247;BME280;27913;42.722;23.268;2022-09-17T05:58:56;93979.25;;;16.28;100.00
42247;BME280;27913;42.722;23.268;2022-09-17T06:01:22;94122.50;;;17.18;100.00
42247;BME280;27913;42.722;23.268;2022-09-17T06:03:48;93945.28;;;16.02;100.00
42247;BME280;27913;42.722;23.268;2022-09-17T06:06:13;94020.38;;;16.53;100.00
42247;BME280;27913;42.722;23.268;2022-09-17T06:08:39;93961.19;;;16.02;100.00
42247;BME280;27913;42.722;23.268;2022-09-17T06:11:06;94016.63;;;16.04;100.00
42247;BME280;27913;42.722;23.268;2022-09-17T06:13:32;94090.91;;;16.49;100.00
42247;BME280;27913;42.722;23.268;2022-09-17T06:15:58;94173.69;;;16.90;100.00
42247;BME280;27913;42.722;23.268;2022-09-17T06:18:24;94174.13;;;16.82;100.00
42247;BME280;27913;42.722;23.268;2022-09-17T06:20:59;93990.59;;;15.61;100.00
42247;BME280;27913;42.722;23.268;2022-09-17T06:23:25;94113.13;;;16.42;100.00
42247;BME280;27913;42.722;23.268;2022-09-17T06:25:55;94146.97;;;16.52;100.00
42247;BME280;27913;42.722;23.268;2022-09-17T06:28:21;94150.66;;;16.51;100.00
42247;BME280;27913;42.722;23.268;2022-09-17T06:30:47;94096.22;;;15.92;100.00
42247;BME280;27913;42.722;23.268;2022-09-17T06:33:13;94097.59;;;15.94;100.00
42247;BME280;27913;42.722;23.268;2022-09-17T06:35:38;94059.63;;;15.72;100.00
42247;BME280;27913;42.722;23.268;2022-09-17T06:38:04;94066.66;;;15.83;100.00
42247;BME280;27913;42.722;23.268;2022-09-17T06:40:30;94046.03;;;15.85;100.00
42247;BME280;27913;42.722;23.268;2022-09-17T06:42:57;94010.25;;;15.65;100.00
42247;BME280;27913;42.722;23.268;2022-09-17T06:45:24;94177.22;;;16.74;100.00
42247;BME280;27913;42.722;23.268;2022-09-17T06:47:50;94180.88;;;16.90;100.00
42247;BME280;27913;42.722;23.268;2022-09-17T06:50:16;94092.22;;;16.46;100.00
42247;BME280;27913;42.722;23.268;2022-09-17T06:52:48;94064.81;;;16.40;100.00
42247;BME280;27913;42.722;23.268;2022-09-17T06:55:15;94172.44;;;17.16;100.00
42247;BME280;27913;42.722;23.268;2022-09-17T06:57:40;94170.38;;;17.23;100.00
42247;BME280;27913;42.722;23.268;2022-09-17T07:00:07;94161.16;;;17.31;100.00
42247;BME280;27913;42.722;23.268;2022-09-17T07:02:33;94159.91;;;17.38;100.00
42247;BME280;27913;42.722;23.268;2022-09-17T07:04:58;94151.44;;;17.42;100.00
42247;BME280;27913;42.722;23.268;2022-09-17T07:07:24;94000.75;;;16.54;100.00
42247;BME280;27913;42.722;23.268;2022-09-17T07:09:50;93926.19;;;16.28;100.00
42247;BME280;27913;42.722;23.268;2022-09-17T07:12:16;94117.00;;;17.57;100.00
42247;BME280;27913;42.722;23.268;2022-09-17T07:14:42;93990.94;;;16.82;100.00
42247;BME280;27913;42.722;23.268;2022-09-17T07:17:07;94063.78;;;17.47;100.00
42247;BME280;27913;42.722;23.268;2022-09-17T07:19:33;94102.06;;;17.84;100.00
42247;BME280;27913;42.722;23.268;2022-09-17T07:21:58;94058.19;;;17.81;100.00
42247;BME280;27913;42.722;23.268;2022-09-17T07:24:24;94055.09;;;18.00;100.00
42247;BME280;27913;42.722;23.268;2022-09-17T07:26:50;94104.63;;;18.11;100.00
42247;BME280;27913;42.722;23.268;2022-09-17T07:29:15;94134.03;;;18.22;100.00
42247;BME280;27913;42.722;23.268;2022-09-17T07:31:41;94121.00;;;18.31;100.00
42247;BME280;27913;42.722;23.268;2022-09-17T07:34:06;94061.81;;;18.08;100.00
42247;BME280;27913;42.722;23.268;2022-09-17T07:36:32;94060.75;;;18.09;100.00
42247;BME280;27913;42.722;23.268;2022-09-17T07:38:58;94041.09;;;18.15;100.00
42247;BME280;27913;42.722;23.268;2022-09-17T07:41:23;94054.50;;;18.31;100.00
42247;BME280;27913;42.722;23.268;2022-09-17T07:43:52;93940.03;;;17.61;100.00
42247;BME280;27913;42.722;23.268;2022-09-17T07:46:21;93904.06;;;17.48;100.00
42247;BME280;27913;42.722;23.268;2022-09-17T07:48:47;94005.97;;;18.13;100.00
42247;BME280;27913;42.722;23.268;2022-09-17T07:51:21;94042.84;;;18.42;100.00
42247;BME280;27913;42.722;23.268;2022-09-17T07:53:52;94097.81;;;18.69;100.00
42247;BME280;27913;42.722;23.268;2022-09-17T07:56:19;94007.94;;;18.28;100.00
42247;BME280;27913;42.722;23.268;2022-09-17T07:58:45;94085.81;;;18.77;100.00
42247;BME280;27913;42.722;23.268;2022-09-17T08:01:12;94095.94;;;18.80;100.00
42247;BME280;27913;42.722;23.268;2022-09-17T08:03:39;94079.44;;;18.83;100.00
42247;BME280;27913;42.722;23.268;2022-09-17T08:06:09;94026.69;;;18.70;99.94
42247;BME280;27913;42.722;23.268;2022-09-17T08:08:35;94071.25;;;19.06;98.49
42247;BME280;27913;42.722;23.268;2022-09-17T08:11:05;93931.84;;;18.27;96.88
42247;BME280;27913;42.722;23.268;2022-09-17T08:13:32;93992.88;;;18.70;96.50
42247;BME280;27913;42.722;23.268;2022-09-17T08:16:02;94071.84;;;19.24;93.93
42247;BME280;27913;42.722;23.268;2022-09-17T08:18:29;93954.25;;;18.68;93.99
42247;BME280;27913;42.722;23.268;2022-09-17T08:20:56;94071.88;;;19.50;91.12
42247;BME280;27913;42.722;23.268;2022-09-17T08:23:23;94069.47;;;19.53;89.37
42247;BME280;27913;42.722;23.268;2022-09-17T08:25:55;94063.88;;;19.65;89.90
42247;BME280;27913;42.722;23.268;2022-09-17T08:28:22;93914.59;;;18.82;89.37
42247;BME280;27913;42.722;23.268;2022-09-17T08:30:50;94072.13;;;19.79;85.38
42247;BME280;27913;42.722;23.268;2022-09-17T08:33:16;93912.47;;;18.84;85.88
42247;BME280;27913;42.722;23.268;2022-09-17T08:35:42;94055.59;;;19.83;87.01
42247;BME280;27913;42.722;23.268;2022-09-17T08:38:08;93947.66;;;19.23;87.42
42247;BME280;27913;42.722;23.268;2022-09-17T08:40:44;94064.38;;;20.09;86.88
42247;BME280;27913;42.722;23.268;2022-09-17T08:43:15;93962.84;;;19.48;85.84
42247;BME280;27913;42.722;23.268;2022-09-17T08:45:43;94058.22;;;20.14;83.51
42247;BME280;27913;42.722;23.268;2022-09-17T08:48:10;94054.50;;;20.10;82.09
42247;BME280;27913;42.722;23.268;2022-09-17T08:50:40;94000.66;;;19.76;82.27
42247;BME280;27913;42.722;23.268;2022-09-17T08:56:10;94043.00;;;20.04;82.38
42247;BME280;27913;42.722;23.268;2022-09-17T09:05:01;94062.25;;;20.06;81.23
42247;BME280;27913;42.722;23.268;2022-09-17T09:07:36;94071.03;;;19.91;81.53
42247;BME280;27913;42.722;23.268;2022-09-17T09:10:20;94022.00;;;19.45;82.34
42247;BME280;27913;42.722;23.268;2022-09-17T09:12:48;93919.91;;;18.71;83.32
42247;BME280;27913;42.722;23.268;2022-09-17T09:15:39;94066.81;;;19.53;84.52
42247;BME280;27913;42.722;23.268;2022-09-17T09:18:18;94081.47;;;19.51;85.29
42247;BME280;27913;42.722;23.268;2022-09-17T09:20:56;94060.41;;;19.34;86.03
42247;BME280;27913;42.722;23.268;2022-09-17T09:31:59;94116.66;;;18.63;96.01
42247;BME280;27913;42.722;23.268;2022-09-17T09:34:28;94132.00;;;18.45;98.52
42247;BME280;27913;42.722;23.268;2022-09-17T09:37:26;94130.28;;;18.23;100.00
42247;BME280;27913;42.722;23.268;2022-09-17T09:39:52;94082.00;;;17.66;100.00
42247;BME280;27913;42.722;23.268;2022-09-17T09:42:26;94092.34;;;17.62;100.00
42247;BME280;27913;42.722;23.268;2022-09-17T09:44:58;93952.28;;;16.64;100.00
42247;BME280;27913;42.722;23.268;2022-09-17T09:53:32;94035.75;;;17.06;100.00
42247;BME280;27913;42.722;23.268;2022-09-17T09:59:21;94146.72;;;17.82;100.00
42247;BME280;27913;42.722;23.268;2022-09-17T10:01:46;94109.75;;;17.80;100.00
42247;BME280;27913;42.722;23.268;2022-09-17T10:04:26;94099.38;;;17.79;100.00
42247;BME280;27913;42.722;23.268;2022-09-17T10:07:09;94055.84;;;17.52;100.00
42247;BME280;27913;42.722;23.268;2022-09-17T10:09:37;94011.22;;;17.54;100.00
42247;BME280;27913;42.722;23.268;2022-09-17T10:12:14;94032.13;;;17.83;100.00
42247;BME280;27913;42.722;23.268;2022-09-17T10:14:42;93995.28;;;17.59;100.00
42247;BME280;27913;42.722;23.268;2022-09-17T10:19:40;94031.38;;;17.88;100.00
42247;BME280;27913;42.722;23.268;2022-09-17T10:24:46;93822.47;;;16.62;100.00
42247;BME280;27913;42.722;23.268;2022-09-17T10:27:16;93980.16;;;17.60;100.00
42247;BME280;27913;42.722;23.268;2022-09-17T10:29:47;93879.91;;;16.74;100.00
42247;BME280;27913;42.722;23.268;2022-09-17T10:32:18;94011.53;;;17.63;100.00
42247;BME280;27913;42.722;23.268;2022-09-17T10:39:57;93854.81;;;16.54;100.00
42247;BME280;27913;42.722;23.268;2022-09-17T10:42:22;93896.66;;;16.74;100.00
42247;BME280;27913;42.722;23.268;2022-09-17T10:44:56;94037.66;;;17.77;100.00
42247;BME280;27913;42.722;23.268;2022-09-17T10:47:30;93966.81;;;17.49;100.00
42247;BME280;27913;42.722;23.268;2022-09-17T10:50:25;94014.88;;;17.86;100.00
42247;BME280;27913;42.722;23.268;2022-09-17T10:52:50;93941.06;;;17.55;100.00
42247;BME280;27913;42.722;23.268;2022-09-17T10:55:30;93831.72;;;16.93;100.00
42247;BME280;27913;42.722;23.268;2022-09-17T11:06:32;93974.66;;;17.72;100.00
42247;BME280;27913;42.722;23.268;2022-09-17T11:14:49;94032.41;;;18.30;100.00
42247;BME280;27913;42.722;23.268;2022-09-17T11:20:25;93915.09;;;17.78;100.00
42247;BME280;27913;42.722;23.268;2022-09-17T11:36:07;93982.31;;;18.17;100.00
42247;BME280;27913;42.722;23.268;2022-09-17T11:38:43;94019.69;;;18.43;100.00
42247;BME280;27913;42.722;23.268;2022-09-17T11:41:16;94016.19;;;18.32;100.00
42247;BME280;27913;42.722;23.268;2022-09-17T11:46:53;94010.53;;;18.18;100.00
42247;BME280;27913;42.722;23.268;2022-09-17T11:49:26;93978.25;;;18.04;100.00
42247;BME280;27913;42.722;23.268;2022-09-17T11:52:03;93930.00;;;17.74;100.00
42247;BME280;27913;42.722;23.268;2022-09-17T11:54:37;93752.22;;;16.70;100.00
42247;BME280;27913;42.722;23.268;2022-09-17T11:57:14;93983.44;;;18.31;100.00
42247;BME280;27913;42.722;23.268;2022-09-17T11:59:49;93939.38;;;17.92;100.00
42247;BME280;27913;42.722;23.268;2022-09-17T12:04:58;93997.84;;;18.35;94.73
42247;BME280;27913;42.722;23.268;2022-09-17T12:07:49;93945.88;;;18.17;92.92
42247;BME280;27913;42.722;23.268;2022-09-17T12:10:37;93897.09;;;17.96;92.25
42247;BME280;27913;42.722;23.268;2022-09-17T12:13:31;93953.16;;;18.38;90.91
42247;BME280;27913;42.722;23.268;2022-09-17T12:16:27;93867.31;;;17.89;89.52
42247;BME280;27913;42.722;23.268;2022-09-17T12:22:05;93830.28;;;17.71;89.52
42247;BME280;27913;42.722;23.268;2022-09-17T12:24:32;93990.22;;;18.70;89.86
42247;BME280;27913;42.722;23.268;2022-09-17T12:40:44;93910.28;;;18.29;91.96
42247;BME280;27913;42.722;23.268;2022-09-17T12:43:36;93947.84;;;18.48;89.16
42247;BME280;27913;42.722;23.268;2022-09-17T12:52:18;93903.84;;;18.14;90.89
42247;BME280;27913;42.722;23.268;2022-09-17T13:01:04;93927.81;;;18.19;92.77
42247;BME280;27913;42.722;23.268;2022-09-17T13:03:33;93883.28;;;17.94;93.21
42247;BME280;27913;42.722;23.268;2022-09-17T13:09:03;93851.56;;;17.77;95.62
42247;BME280;27913;42.722;23.268;2022-09-17T13:14:26;93794.56;;;17.41;94.03
42247;BME280;27913;42.722;23.268;2022-09-17T13:16:59;93914.44;;;18.09;93.00
42247;BME280;27913;42.722;23.268;2022-09-17T13:20:04;93680.50;;;16.60;94.67
42247;BME280;27913;42.722;23.268;2022-09-17T13:22:44;93908.03;;;17.99;95.37
42247;BME280;27913;42.722;23.268;2022-09-17T13:25:11;93906.97;;;18.01;96.15
42247;BME280;27913;42.722;23.268;2022-09-17T13:27:38;93845.66;;;17.59;97.21
42247;BME280;27913;42.722;23.268;2022-09-17T13:30:06;93917.34;;;18.02;96.73
42247;BME280;27913;42.722;23.268;2022-09-17T13:37:37;93902.44;;;18.01;98.98
42247;BME280;27913;42.722;23.268;2022-09-17T13:40:18;93894.22;;;18.03;99.49
42247;BME280;27913;42.722;23.268;2022-09-17T13:42:47;93711.19;;;16.88;98.17
42247;BME280;27913;42.722;23.268;2022-09-17T13:45:17;93866.25;;;17.95;99.06
42247;BME280;27913;42.722;23.268;2022-09-17T13:47:59;93732.09;;;17.33;99.81
42247;BME280;27913;42.722;23.268;2022-09-17T13:55:48;93840.50;;;18.11;100.00
42247;BME280;27913;42.722;23.268;2022-09-17T14:19:47;93813.41;;;18.19;100.00
42247;BME280;27913;42.722;23.268;2022-09-17T14:22:16;93817.88;;;18.08;100.00
42247;BME280;27913;42.722;23.268;2022-09-17T14:24:46;93765.97;;;17.80;100.00
42247;BME280;27913;42.722;23.268;2022-09-17T14:35:41;93741.47;;;17.52;100.00
42247;BME280;27913;42.722;23.268;2022-09-17T14:38:20;93769.69;;;17.73;100.00
42247;BME280;27913;42.722;23.268;2022-09-17T14:48:44;93574.03;;;16.40;100.00
42247;BME280;27913;42.722;23.268;2022-09-17T14:53:42;93807.19;;;17.87;100.00
42247;BME280;27913;42.722;23.268;2022-09-17T14:56:16;93808.53;;;17.90;100.00
42247;BME280;27913;42.722;23.268;2022-09-17T14:58:49;93805.34;;;17.93;100.00
42247;BME280;27913;42.722;23.268;2022-09-17T15:01:22;93777.16;;;17.92;100.00
42247;BME280;27913;42.722;23.268;2022-09-17T15:03:48;93767.31;;;17.93;100.00
42247;BME280;27913;42.722;23.268;2022-09-17T15:06:20;93698.69;;;17.69;100.00
42247;BME280;27913;42.722;23.268;2022-09-17T15:08:46;93745.22;;;17.82;100.00
42247;BME280;27913;42.722;23.268;2022-09-17T15:11:12;93709.56;;;17.46;100.00
42247;BME280;27913;42.722;23.268;2022-09-17T15:13:48;93565.91;;;16.73;100.00
42247;BME280;27913;42.722;23.268;2022-09-17T15:16:21;93714.09;;;17.56;100.00
42247;BME280;27913;42.722;23.268;2022-09-17T15:18:51;93713.84;;;17.68;100.00
42247;BME280;27913;42.722;23.268;2022-09-17T15:21:28;93656.09;;;17.22;100.00
42247;BME280;27913;42.722;23.268;2022-09-17T15:24:00;93746.56;;;17.90;100.00
42247;BME280;27913;42.722;23.268;2022-09-17T15:26:33;93742.84;;;17.80;100.00
42247;BME280;27913;42.722;23.268;2022-09-17T15:29:01;93677.66;;;17.46;93.84
42247;BME280;27913;42.722;23.268;2022-09-17T15:31:28;93624.47;;;17.20;97.80
42247;BME280;27913;42.722;23.268;2022-09-17T15:33:58;93705.88;;;17.79;100.00
42247;BME280;27913;42.722;23.268;2022-09-17T15:36:25;93731.94;;;17.97;100.00
42247;BME280;27913;42.722;23.268;2022-09-17T15:38:56;93667.34;;;17.60;99.93
42247;BME280;27913;42.722;23.268;2022-09-17T15:41:30;93732.75;;;18.03;89.83
42247;BME280;27913;42.722;23.268;2022-09-17T15:44:22;93656.44;;;17.72;86.80
42247;BME280;27913;42.722;23.268;2022-09-17T15:46:48;93732.00;;;18.29;84.12
42247;BME280;27913;42.722;23.268;2022-09-17T15:49:32;93754.06;;;18.34;85.09
42247;BME280;27913;42.722;23.268;2022-09-17T15:52:34;93518.16;;;16.94;94.13
42247;BME280;27913;42.722;23.268;2022-09-17T15:55:00;93764.22;;;18.27;96.87
42247;BME280;27913;42.722;23.268;2022-09-17T15:57:27;93754.34;;;18.22;98.08
42247;BME280;27913;42.722;23.268;2022-09-17T15:59:54;93746.34;;;18.22;98.90
42247;BME280;27913;42.722;23.268;2022-09-17T16:02:27;93719.75;;;18.17;98.71
42247;BME280;27913;42.722;23.268;2022-09-17T16:07:41;93666.53;;;17.75;99.44
42247;BME280;27913;42.722;23.268;2022-09-17T16:10:09;93712.31;;;18.14;99.48
42247;BME280;27913;42.722;23.268;2022-09-17T16:12:35;93596.88;;;17.37;99.67
42247;BME280;27913;42.722;23.268;2022-09-17T16:15:01;93657.22;;;17.73;100.00
42247;BME280;27913;42.722;23.268;2022-09-17T16:20:19;93637.81;;;17.67;96.09
42247;BME280;27913;42.722;23.268;2022-09-17T16:22:48;93651.13;;;17.67;96.86
42247;BME280;27913;42.722;23.268;2022-09-17T16:25:14;93634.09;;;17.68;97.62
42247;BME280;27913;42.722;23.268;2022-09-17T16:27:49;93649.50;;;17.77;97.78
42247;BME280;27913;42.722;23.268;2022-09-17T16:30:19;93720.25;;;18.09;99.21
42247;BME280;27913;42.722;23.268;2022-09-17T16:32:46;93531.50;;;17.15;99.13
42247;BME280;27913;42.722;23.268;2022-09-17T16:35:13;93685.69;;;18.04;100.00
42247;BME280;27913;42.722;23.268;2022-09-17T16:37:38;93671.59;;;18.03;90.09
42247;BME280;27913;42.722;23.268;2022-09-17T16:40:04;93672.13;;;18.05;90.92
42247;BME280;27913;42.722;23.268;2022-09-17T16:42:30;93602.19;;;17.79;90.86
42247;BME280;27913;42.722;23.268;2022-09-17T16:44:56;93509.47;;;17.35;90.76
42247;BME280;27913;42.722;23.268;2022-09-17T16:47:24;93640.47;;;18.09;89.89
42247;BME280;27913;42.722;23.268;2022-09-17T16:49:49;93640.47;;;18.09;90.10
42247;BME280;27913;42.722;23.268;2022-09-17T16:52:15;93407.19;;;16.81;82.18
42247;BME280;27913;42.722;23.268;2022-09-17T16:54:40;93356.22;;;16.47;87.90
42247;BME280;27913;42.722;23.268;2022-09-17T16:57:06;93628.75;;;18.20;90.43
42247;BME280;27913;42.722;23.268;2022-09-17T16:59:31;93638.63;;;18.20;90.69
42247;BME280;27913;42.722;23.268;2022-09-17T17:01:57;93646.06;;;18.18;90.28
42247;BME280;27913;42.722;23.268;2022-09-17T17:04:22;93649.00;;;18.16;90.97
42247;BME280;27913;42.722;23.268;2022-09-17T17:06:48;93625.84;;;17.85;91.73
42247;BME280;27913;42.722;23.268;2022-09-17T17:09:14;93623.72;;;17.72;93.89
42247;BME280;27913;42.722;23.268;2022-09-17T17:11:39;93686.50;;;18.09;96.86
42247;BME280;27913;42.722;23.268;2022-09-17T17:14:05;93703.50;;;18.03;98.53
42247;BME280;27913;42.722;23.268;2022-09-17T17:16:31;93696.31;;;17.98;98.29
42247;BME280;27913;42.722;23.268;2022-09-17T17:18:56;93636.75;;;17.58;98.71
42247;BME280;27913;42.722;23.268;2022-09-17T17:21:22;93700.84;;;17.87;98.84
42247;BME280;27913;42.722;23.268;2022-09-17T17:23:47;93704.56;;;17.86;98.11
42247;BME280;27913;42.722;23.268;2022-09-17T17:26:15;93568.13;;;17.02;98.50
42247;BME280;27913;42.722;23.268;2022-09-17T17:28:41;93638.84;;;17.45;99.02
42247;BME280;27913;42.722;23.268;2022-09-17T17:31:08;93687.81;;;17.81;99.66
42247;BME280;27913;42.722;23.268;2022-09-17T17:33:34;93668.38;;;17.80;99.82
42247;BME280;27913;42.722;23.268;2022-09-17T17:36:01;93485.19;;;16.59;99.67
42247;BME280;27913;42.722;23.268;2022-09-17T17:38:27;93697.09;;;17.83;99.51
42247;BME280;27913;42.722;23.268;2022-09-17T17:41:07;93714.66;;;17.84;98.73
42247;BME280;27913;42.722;23.268;2022-09-17T17:43:34;93722.66;;;17.84;98.38
42247;BME280;27913;42.722;23.268;2022-09-17T17:45:59;93641.22;;;17.26;98.05
42247;BME280;27913;42.722;23.268;2022-09-17T17:48:26;93713.03;;;17.68;99.38
42247;BME280;27913;42.722;23.268;2022-09-17T17:50:51;93734.31;;;17.83;99.08
42247;BME280;27913;42.722;23.268;2022-09-17T17:53:17;93731.41;;;17.74;99.08
42247;BME280;27913;42.722;23.268;2022-09-17T17:55:43;93746.56;;;17.84;99.07
42247;BME280;27913;42.722;23.268;2022-09-17T17:58:08;93720.50;;;17.66;98.61
42247;BME280;27913;42.722;23.268;2022-09-17T18:00:33;93740.44;;;17.73;98.92
42247;BME280;27913;42.722;23.268;2022-09-17T18:02:59;93743.63;;;17.75;99.97
42247;BME280;27913;42.722;23.268;2022-09-17T18:05:24;93756.66;;;17.77;99.99
42247;BME280;27913;42.722;23.268;2022-09-17T18:07:50;93747.88;;;17.77;100.00
42247;BME280;27913;42.722;23.268;2022-09-17T18:10:15;93747.88;;;17.77;100.00
42247;BME280;27913;42.722;23.268;2022-09-17T18:12:41;93741.25;;;17.74;100.00
42247;BME280;27913;42.722;23.268;2022-09-17T18:15:14;93639.34;;;17.16;100.00
42247;BME280;27913;42.722;23.268;2022-09-17T18:17:39;93515.06;;;16.28;100.00
42247;BME280;27913;42.722;23.268;2022-09-17T18:20:05;93742.28;;;17.73;100.00
42247;BME280;27913;42.722;23.268;2022-09-17T18:22:30;93663.00;;;17.23;100.00
42247;BME280;27913;42.722;23.268;2022-09-17T18:24:56;93744.16;;;17.72;100.00
42247;BME280;27913;42.722;23.268;2022-09-17T18:27:21;93739.13;;;17.71;100.00
42247;BME280;27913;42.722;23.268;2022-09-17T18:29:47;93662.97;;;17.18;100.00
42247;BME280;27913;42.722;23.268;2022-09-17T18:32:12;93752.13;;;17.67;99.13
42247;BME280;27913;42.722;23.268;2022-09-17T18:34:40;93648.56;;;17.03;98.62
42247;BME280;27913;42.722;23.268;2022-09-17T18:37:05;93499.88;;;16.08;96.94
42247;BME280;27913;42.722;23.268;2022-09-17T18:39:31;93651.22;;;17.08;96.52
42247;BME280;27913;42.722;23.268;2022-09-17T18:41:56;93735.38;;;17.67;97.24
42247;BME280;27913;42.722;23.268;2022-09-17T18:44:22;93745.19;;;17.66;97.63
42247;BME280;27913;42.722;23.268;2022-09-17T18:46:47;93740.69;;;17.67;96.76
42247;BME280;27913;42.722;23.268;2022-09-17T18:49:14;93481.03;;;16.04;95.98
42247;BME280;27913;42.722;23.268;2022-09-17T18:51:40;93739.63;;;17.68;95.21
42247;BME280;27913;42.722;23.268;2022-09-17T18:54:05;93588.75;;;16.74;95.13
42247;BME280;27913;42.722;23.268;2022-09-17T18:56:31;93734.56;;;17.66;95.61
42247;BME280;27913;42.722;23.268;2022-09-17T18:58:58;93735.38;;;17.67;96.20
42247;BME280;27913;42.722;23.268;2022-09-17T19:01:29;93642.19;;;16.99;96.50
42247;BME280;27913;42.722;23.268;2022-09-17T19:03:56;93741.50;;;17.67;96.10
42247;BME280;27913;42.722;23.268;2022-09-17T19:06:23;93688.53;;;17.39;95.95
42247;BME280;27913;42.722;23.268;2022-09-17T19:08:49;93733.78;;;17.66;95.89
42247;BME280;27913;42.722;23.268;2022-09-17T19:11:16;93689.84;;;17.26;95.91
42247;BME280;27913;42.722;23.268;2022-09-17T19:13:44;93737.22;;;17.61;95.93
42247;BME280;27913;42.722;23.268;2022-09-17T19:16:11;93734.81;;;17.54;95.79
42247;BME280;27913;42.722;23.268;2022-09-17T19:18:37;93675.19;;;17.13;96.74
42247;BME280;27913;42.722;23.268;2022-09-17T19:21:09;93737.19;;;17.50;96.97
42247;BME280;27913;42.722;23.268;2022-09-17T19:23:42;93739.84;;;17.45;95.65
42247;BME280;27913;42.722;23.268;2022-09-17T19:26:10;93548.44;;;16.18;93.19
42247;BME280;27913;42.722;23.268;2022-09-17T19:28:36;93729.97;;;17.30;94.48
42247;BME280;27913;42.722;23.268;2022-09-17T19:31:05;93736.09;;;17.36;94.75
42247;BME280;27913;42.722;23.268;2022-09-17T19:33:31;93688.47;;;17.19;94.53
42247;BME280;27913;42.722;23.268;2022-09-17T19:36:01;93600.91;;;16.60;93.41
42247;BME280;27913;42.722;23.268;2022-09-17T19:38:27;93665.03;;;17.05;93.81
42247;BME280;27913;42.722;23.268;2022-09-17T19:40:56;93609.91;;;16.59;93.30
42247;BME280;27913;42.722;23.268;2022-09-17T19:43:22;93674.84;;;17.05;93.47
42247;BME280;27913;42.722;23.268;2022-09-17T19:45:47;93679.41;;;17.09;93.61
42247;BME280;27913;42.722;23.268;2022-09-17T19:48:13;93613.44;;;16.80;93.43
42247;BME280;27913;42.722;23.268;2022-09-17T19:50:38;93725.50;;;17.41;92.75
42247;BME280;27913;42.722;23.268;2022-09-17T19:53:04;93673.03;;;17.10;93.26
42247;BME280;27913;42.722;23.268;2022-09-17T19:55:29;93716.72;;;17.41;93.03
42247;BME280;27913;42.722;23.268;2022-09-17T19:57:54;93599.09;;;16.71;92.92
42247;BME280;27913;42.722;23.268;2022-09-17T20:00:20;93709.53;;;17.41;93.78
42247;BME280;27913;42.722;23.268;2022-09-17T20:02:46;93697.84;;;17.37;93.86
42247;BME280;27913;42.722;23.268;2022-09-17T20:05:11;93597.47;;;16.64;94.13
42247;BME280;27913;42.722;23.268;2022-09-17T20:07:37;93691.69;;;17.31;94.38
42247;BME280;27913;42.722;23.268;2022-09-17T20:10:03;93682.41;;;17.29;94.18
42247;BME280;27913;42.722;23.268;2022-09-17T20:12:29;93544.03;;;16.40;94.48
42247;BME280;27913;42.722;23.268;2022-09-17T20:14:54;93691.41;;;17.27;94.92
42247;BME280;27913;42.722;23.268;2022-09-17T20:17:20;93694.88;;;17.23;95.23
42247;BME280;27913;42.722;23.268;2022-09-17T20:19:45;93650.63;;;16.85;95.35
42247;BME280;27913;42.722;23.268;2022-09-17T20:22:11;93668.00;;;17.14;95.67
42247;BME280;27913;42.722;23.268;2022-09-17T20:24:36;93674.66;;;17.17;95.87
42247;BME280;27913;42.722;23.268;2022-09-17T20:27:02;93695.34;;;17.09;96.01
42247;BME280;27913;42.722;23.268;2022-09-17T20:29:28;93696.69;;;17.12;95.72
42247;BME280;27913;42.722;23.268;2022-09-17T20:31:53;93685.25;;;17.11;95.29
42247;BME280;27913;42.722;23.268;2022-09-17T20:34:18;93698.53;;;17.11;95.24
42247;BME280;27913;42.722;23.268;2022-09-17T20:36:44;93711.81;;;17.11;94.94
42247;BME280;27913;42.722;23.268;2022-09-17T20:39:09;93497.56;;;15.78;95.51
42247;BME280;27913;42.722;23.268;2022-09-17T20:41:37;93715.28;;;17.12;95.33
42247;BME280;27913;42.722;23.268;2022-09-17T20:44:05;93654.84;;;16.76;95.74
42247;BME280;27913;42.722;23.268;2022-09-17T20:46:30;93722.72;;;17.15;95.89
42247;BME280;27913;42.722;23.268;2022-09-17T20:48:56;93712.34;;;17.13;95.68
42247;BME280;27913;42.722;23.268;2022-09-17T20:51:23;93664.41;;;16.82;95.75
42247;BME280;27913;42.722;23.268;2022-09-17T20:53:49;93480.31;;;15.70;96.12
42247;BME280;27913;42.722;23.268;2022-09-17T20:56:20;93690.78;;;17.05;97.18
42247;BME280;27913;42.722;23.268;2022-09-17T20:58:46;93693.97;;;17.07;96.92
42247;BME280;27913;42.722;23.268;2022-09-17T21:01:21;93697.16;;;17.03;97.25
42247;BME280;27913;42.722;23.268;2022-09-17T21:03:49;93566.78;;;16.30;96.68
42247;BME280;27913;42.722;23.268;2022-09-17T21:06:23;93511.47;;;15.96;97.29
42247;BME280;27913;42.722;23.268;2022-09-17T21:08:50;93515.66;;;15.92;97.21
42247;BME280;27913;42.722;23.268;2022-09-17T21:11:16;93507.47;;;15.88;97.15
42247;BME280;27913;42.722;23.268;2022-09-17T21:13:42;93575.59;;;16.36;97.03
42247;BME280;27913;42.722;23.268;2022-09-17T21:16:08;93694.78;;;17.02;95.92